sensor_id;sensor_type;location;lat;lon;timestamp;pressure;altitude;pressure_sealevel;temperature;humidity
14612;BME280;7392;52.078;11.650;2022-10-16T00:00:51;100442.72;;;14.54;100.00
14612;BME280;7392;52.078;11.650;2022-10-16T00:03:19;100452.50;;;14.55;100.00
14612;BME280;7392;52.078;11.650;2022-10-16T00:05:58;100456.06;;;14.54;100.00
14612;BME280;7392;52.078;11.650;2022-10-16T00:08:27;100449.91;;;14.52;100.00
14612;BME280;7392;52.078;11.650;2022-10-16T00:10:59;100446.38;;;14.50;100.00
14612;BME280;7392;52.078;11.650;2022-10-16T00:13:27;100447.28;;;14.49;100.00
14612;BME280;7392;52.078;11.650;2022-10-16T00:15:56;100449.13;;;14.47;100.00
14612;BME280;7392;52.078;11.650;2022-10-16T00:18:24;100443.78;;;14.47;100.00
14612;BME280;7392;52.078;11.650;2022-10-16T00:20:52;100436.69;;;14.45;100.00
14612;BME280;7392;52.078;11.650;2022-10-16T00:23:26;100441.16;;;14.44;100.00
14612;BME280;7392;52.078;11.650;2022-10-16T00:25:55;100448.34;;;14.42;100.00
14612;BME280;7392;52.078;11.650;2022-10-16T00:28:23;100453.75;;;14.39;100.00
14612;BME280;7392;52.078;11.650;2022-10-16T00:30:52;100456.47;;;14.36;100.00
14612;BME280;7392;52.078;11.650;2022-10-16T00:33:20;100456.56;;;14.33;100.00
14612;BME280;7392;52.078;11.650;2022-10-16T00:35:48;100453.06;;;14.29;100.00
14612;BME280;7392;52.078;11.650;2022-10-16T00:38:16;100450.44;;;14.28;100.00
14612;BME280;7392;52.078;11.650;2022-10-16T00:40:45;100454.06;;;14.25;100.00
14612;BME280;7392;52.078;11.650;2022-10-16T00:43:31;100458.59;;;14.21;100.00
14612;BME280;7392;52.078;11.650;2022-10-16T00:46:00;100467.53;;;14.19;100.00
14612;BME280;7392;52.078;11.650;2022-10-16T00:48:28;100464.94;;;14.16;100.00
14612;BME280;7392;52.078;11.650;2022-10-16T00:50:57;100458.78;;;14.12;100.00
14612;BME280;7392;52.078;11.650;2022-10-16T00:53:27;100464.25;;;14.08;100.00
14612;BME280;7392;52.078;11.650;2022-10-16T00:55:56;100470.50;;;14.05;100.00
14612;BME280;7392;52.078;11.650;2022-10-16T00:58:24;100472.38;;;14.01;100.00
14612;BME280;7392;52.078;11.650;2022-10-16T01:00:52;100473.31;;;13.99;100.00
14612;BME280;7392;52.078;11.650;2022-10-16T01:03:26;100492.06;;;13.96;100.00
14612;BME280;7392;52.078;11.650;2022-10-16T01:06:07;100488.59;;;13.92;100.00
14612;BME280;7392;52.078;11.650;2022-10-16T01:08:50;100491.31;;;13.89;100.00
14612;BME280;7392;52.078;11.650;2022-10-16T01:11:24;100488.69;;;13.86;100.00
14612;BME280;7392;52.078;11.650;2022-10-16T01:13:59;100488.78;;;13.81;100.00
14612;BME280;7392;52.078;11.650;2022-10-16T01:16:33;100490.59;;;13.79;100.00
14612;BME280;7392;52.078;11.650;2022-10-16T01:19:09;100487.13;;;13.76;100.00
14612;BME280;7392;52.078;11.650;2022-10-16T01:21:40;100489.84;;;13.73;100.00
14612;BME280;7392;52.078;11.650;2022-10-16T01:24:17;100486.38;;;13.68;100.00
14612;BME280;7392;52.078;11.650;2022-10-16T01:27:04;100496.19;;;13.65;100.00
14612;BME280;7392;52.078;11.650;2022-10-16T01:29:35;100497.19;;;13.61;100.00
14612;BME280;7392;52.078;11.650;2022-10-16T01:32:10;100506.09;;;13.59;100.00
14612;BME280;7392;52.078;11.650;2022-10-16T01:34:46;100511.50;;;13.56;100.00
14612;BME280;7392;52.078;11.650;2022-10-16T01:37:24;100506.19;;;13.54;100.00
14612;BME280;7392;52.078;11.650;2022-10-16T01:39:55;100508.00;;;13.52;100.00
14612;BME280;7392;52.078;11.650;2022-10-16T01:42:30;100497.34;;;13.51;100.00
14612;BME280;7392;52.078;11.650;2022-10-16T01:45:02;100489.38;;;13.49;100.00
14612;BME280;7392;52.078;11.650;2022-10-16T01:47:33;100497.41;;;13.47;100.00
14612;BME280;7392;52.078;11.650;2022-10-16T01:50:04;100503.66;;;13.46;100.00
14612;BME280;7392;52.078;11.650;2022-10-16T01:52:35;100506.34;;;13.46;100.00
14612;BME280;7392;52.078;11.650;2022-10-16T01:55:06;100496.59;;;13.44;100.00
14612;BME280;7392;52.078;11.650;2022-10-16T01:57:40;100505.50;;;13.43;100.00
14612;BME280;7392;52.078;11.650;2022-10-16T02:00:12;100508.22;;;13.41;100.00
14612;BME280;7392;52.078;11.650;2022-10-16T02:02:42;100508.22;;;13.41;100.00
14612;BME280;7392;52.078;11.650;2022-10-16T02:05:16;100502.03;;;13.39;100.00
14612;BME280;7392;52.078;11.650;2022-10-16T02:07:45;100496.72;;;13.38;100.00
14612;BME280;7392;52.078;11.650;2022-10-16T02:10:14;100493.19;;;13.36;100.00
14612;BME280;7392;52.078;11.650;2022-10-16T02:12:47;100498.53;;;13.36;100.00
14612;BME280;7392;52.078;11.650;2022-10-16T02:15:17;100503.91;;;13.31;100.00
14612;BME280;7392;52.078;11.650;2022-10-16T02:17:45;100495.91;;;13.31;100.00
14612;BME280;7392;52.078;11.650;2022-10-16T02:20:13;100513.75;;;13.27;100.00
14612;BME280;7392;52.078;11.650;2022-10-16T02:22:43;100509.34;;;13.25;100.00
14612;BME280;7392;52.078;11.650;2022-10-16T02:25:17;100515.63;;;13.21;100.00
14612;BME280;7392;52.078;11.650;2022-10-16T02:27:50;100520.13;;;13.19;100.00
14612;BME280;7392;52.078;11.650;2022-10-16T02:30:25;100508.66;;;13.14;100.00
14612;BME280;7392;52.078;11.650;2022-10-16T02:32:56;100510.44;;;13.12;100.00
14612;BME280;7392;52.078;11.650;2022-10-16T02:35:27;100506.91;;;13.09;100.00
14612;BME280;7392;52.078;11.650;2022-10-16T02:37:56;100515.88;;;13.07;100.00
14612;BME280;7392;52.078;11.650;2022-10-16T02:40:25;100519.44;;;13.04;100.00
14612;BME280;7392;52.078;11.650;2022-10-16T02:42:55;100521.25;;;13.02;100.00
14612;BME280;7392;52.078;11.650;2022-10-16T02:45:23;100528.41;;;13.00;100.00
14612;BME280;7392;52.078;11.650;2022-10-16T02:47:52;100529.31;;;12.98;100.00
14612;BME280;7392;52.078;11.650;2022-10-16T02:50:20;100529.34;;;12.96;100.00
14612;BME280;7392;52.078;11.650;2022-10-16T02:52:47;100532.94;;;12.94;100.00
14612;BME280;7392;52.078;11.650;2022-10-16T02:55:15;100529.41;;;12.93;100.00
14612;BME280;7392;52.078;11.650;2022-10-16T02:57:43;100527.66;;;12.90;100.00
14612;BME280;7392;52.078;11.650;2022-10-16T03:00:14;100531.19;;;12.91;100.00
14612;BME280;7392;52.078;11.650;2022-10-16T03:02:43;100531.19;;;12.91;100.00
14612;BME280;7392;52.078;11.650;2022-10-16T03:05:11;100536.53;;;12.89;100.00
14612;BME280;7392;52.078;11.650;2022-10-16T03:07:39;100533.88;;;12.91;100.00
14612;BME280;7392;52.078;11.650;2022-10-16T03:10:08;100539.22;;;12.89;100.00
14612;BME280;7392;52.078;11.650;2022-10-16T03:12:36;100547.16;;;12.93;100.00
14612;BME280;7392;52.078;11.650;2022-10-16T03:15:04;100539.16;;;12.94;100.00
14612;BME280;7392;52.078;11.650;2022-10-16T03:17:34;100540.94;;;12.94;100.00
14612;BME280;7392;52.078;11.650;2022-10-16T03:20:03;100541.81;;;12.94;100.00
14612;BME280;7392;52.078;11.650;2022-10-16T03:22:30;100540.03;;;12.95;100.00
14612;BME280;7392;52.078;11.650;2022-10-16T03:24:58;100525.81;;;12.94;100.00
14612;BME280;7392;52.078;11.650;2022-10-16T03:27:26;100530.25;;;12.95;100.00
14612;BME280;7392;52.078;11.650;2022-10-16T03:29:55;100537.34;;;12.96;100.00
14612;BME280;7392;52.078;11.650;2022-10-16T03:32:23;100537.31;;;12.98;100.00
14612;BME280;7392;52.078;11.650;2022-10-16T03:34:53;100540.88;;;12.98;100.00
14612;BME280;7392;52.078;11.650;2022-10-16T03:37:22;100541.75;;;12.99;100.00
14612;BME280;7392;52.078;11.650;2022-10-16T03:39:51;100550.63;;;12.99;100.00
14612;BME280;7392;52.078;11.650;2022-10-16T03:42:19;100544.38;;;13.02;100.00
14612;BME280;7392;52.078;11.650;2022-10-16T03:44:47;100535.47;;;13.03;100.00
14612;BME280;7392;52.078;11.650;2022-10-16T03:47:15;100539.88;;;13.05;100.00
14612;BME280;7392;52.078;11.650;2022-10-16T03:49:47;100526.53;;;13.07;100.00
14612;BME280;7392;52.078;11.650;2022-10-16T03:52:16;100524.72;;;13.09;100.00
14612;BME280;7392;52.078;11.650;2022-10-16T03:54:49;100532.69;;;13.10;100.00
14612;BME280;7392;52.078;11.650;2022-10-16T03:57:17;100531.75;;;13.13;100.00
14612;BME280;7392;52.078;11.650;2022-10-16T03:59:45;100541.50;;;13.16;100.00
14612;BME280;7392;52.078;11.650;2022-10-16T04:02:13;100546.81;;;13.17;100.00
14612;BME280;7392;52.078;11.650;2022-10-16T04:04:41;100537.88;;;13.18;100.00
14612;BME280;7392;52.078;11.650;2022-10-16T04:07:08;100544.97;;;13.21;100.00
14612;BME280;7392;52.078;11.650;2022-10-16T04:09:38;100541.38;;;13.22;100.00
14612;BME280;7392;52.078;11.650;2022-10-16T04:12:05;100544.03;;;13.23;100.00
14612;BME280;7392;52.078;11.650;2022-10-16T04:14:33;100540.44;;;13.26;100.00
14612;BME280;7392;52.078;11.650;2022-10-16T04:17:01;100532.41;;;13.27;100.00
14612;BME280;7392;52.078;11.650;2022-10-16T04:19:29;100541.25;;;13.31;100.00
14612;BME280;7392;52.078;11.650;2022-10-16T04:21:57;100542.13;;;13.33;100.00
14612;BME280;7392;52.078;11.650;2022-10-16T04:24:24;100541.25;;;13.33;100.00
14612;BME280;7392;52.078;11.650;2022-10-16T04:26:55;100550.09;;;13.35;100.00
14612;BME280;7392;52.078;11.650;2022-10-16T04:29:23;100546.50;;;13.37;100.00
14612;BME280;7392;52.078;11.650;2022-10-16T04:31:51;100549.09;;;13.42;100.00
14612;BME280;7392;52.078;11.650;2022-10-16T04:34:19;100554.34;;;13.46;100.00
14612;BME280;7392;52.078;11.650;2022-10-16T04:36:47;100551.63;;;13.50;100.00
14612;BME280;7392;52.078;11.650;2022-10-16T04:39:15;100555.16;;;13.52;100.00
14612;BME280;7392;52.078;11.650;2022-10-16T04:41:43;100565.78;;;13.55;100.00
14612;BME280;7392;52.078;11.650;2022-10-16T04:44:13;100571.09;;;13.56;100.00
14612;BME280;7392;52.078;11.650;2022-10-16T04:46:40;100580.81;;;13.59;100.00
14612;BME280;7392;52.078;11.650;2022-10-16T04:49:08;100586.97;;;13.62;100.00
14612;BME280;7392;52.078;11.650;2022-10-16T04:51:36;100582.50;;;13.64;100.00
14612;BME280;7392;52.078;11.650;2022-10-16T04:54:04;100581.59;;;13.65;100.00
14612;BME280;7392;52.078;11.650;2022-10-16T04:56:31;100578.94;;;13.65;100.00
14612;BME280;7392;52.078;11.650;2022-10-16T04:59:06;100576.25;;;13.65;100.00
14612;BME280;7392;52.078;11.650;2022-10-16T05:01:35;100569.13;;;13.66;100.00
14612;BME280;7392;52.078;11.650;2022-10-16T05:04:03;100575.41;;;13.63;100.00
14612;BME280;7392;52.078;11.650;2022-10-16T05:06:31;100571.84;;;13.63;100.00
14612;BME280;7392;52.078;11.650;2022-10-16T05:08:59;100570.97;;;13.62;100.00
14612;BME280;7392;52.078;11.650;2022-10-16T05:11:27;100579.00;;;13.61;100.00
14612;BME280;7392;52.078;11.650;2022-10-16T05:13:54;100578.13;;;13.60;100.00
14612;BME280;7392;52.078;11.650;2022-10-16T05:16:22;100571.91;;;13.60;100.00
14612;BME280;7392;52.078;11.650;2022-10-16T05:18:52;100572.81;;;13.59;100.00
14612;BME280;7392;52.078;11.650;2022-10-16T05:21:35;100572.81;;;13.59;100.00
14612;BME280;7392;52.078;11.650;2022-10-16T05:24:03;100580.88;;;13.54;100.00
14612;BME280;7392;52.078;11.650;2022-10-16T05:26:31;100586.22;;;13.54;100.00
14612;BME280;7392;52.078;11.650;2022-10-16T05:28:59;100592.47;;;13.53;100.00
14612;BME280;7392;52.078;11.650;2022-10-16T05:31:27;100608.50;;;13.53;100.00
14612;BME280;7392;52.078;11.650;2022-10-16T05:33:59;100599.59;;;13.53;100.00
14612;BME280;7392;52.078;11.650;2022-10-16T05:36:27;100598.72;;;13.52;100.00
14612;BME280;7392;52.078;11.650;2022-10-16T05:38:55;100594.31;;;13.51;100.00
14612;BME280;7392;52.078;11.650;2022-10-16T05:41:23;100587.19;;;13.50;100.00
14612;BME280;7392;52.078;11.650;2022-10-16T05:43:52;100593.44;;;13.47;100.00
14612;BME280;7392;52.078;11.650;2022-10-16T05:46:20;100597.94;;;13.44;100.00
14612;BME280;7392;52.078;11.650;2022-10-16T05:48:51;100605.97;;;13.42;100.00
14612;BME280;7392;52.078;11.650;2022-10-16T05:51:20;100632.72;;;13.39;100.00
14612;BME280;7392;52.078;11.650;2022-10-16T05:53:48;100636.31;;;13.37;100.00
14612;BME280;7392;52.078;11.650;2022-10-16T05:56:16;100623.91;;;13.36;100.00
14612;BME280;7392;52.078;11.650;2022-10-16T05:58:43;100649.69;;;13.34;100.00
14612;BME280;7392;52.078;11.650;2022-10-16T06:01:13;100640.81;;;13.33;100.00
14612;BME280;7392;52.078;11.650;2022-10-16T06:03:41;100632.81;;;13.33;100.00
14612;BME280;7392;52.078;11.650;2022-10-16T06:06:09;100632.81;;;13.32;100.00
14612;BME280;7392;52.078;11.650;2022-10-16T06:08:39;100638.16;;;13.32;100.00
14612;BME280;7392;52.078;11.650;2022-10-16T06:11:11;100622.16;;;13.30;100.00
14612;BME280;7392;52.078;11.650;2022-10-16T06:13:39;100621.28;;;13.29;100.00
14612;BME280;7392;52.078;11.650;2022-10-16T06:16:09;100627.50;;;13.28;100.00
14612;BME280;7392;52.078;11.650;2022-10-16T06:18:38;100616.84;;;13.28;100.00
14612;BME280;7392;52.078;11.650;2022-10-16T06:21:10;100631.06;;;13.29;100.00
14612;BME280;7392;52.078;11.650;2022-10-16T06:23:40;100642.63;;;13.29;100.00
14612;BME280;7392;52.078;11.650;2022-10-16T06:26:09;100625.69;;;13.34;100.00
14612;BME280;7392;52.078;11.650;2022-10-16T06:28:38;100626.56;;;13.36;100.00
14612;BME280;7392;52.078;11.650;2022-10-16T06:31:08;100621.13;;;13.40;100.00
14612;BME280;7392;52.078;11.650;2022-10-16T06:33:37;100621.97;;;13.44;100.00
14612;BME280;7392;52.078;11.650;2022-10-16T06:36:06;100633.50;;;13.46;100.00
14612;BME280;7392;52.078;11.650;2022-10-16T06:38:35;100661.03;;;13.48;100.00
14612;BME280;7392;52.078;11.650;2022-10-16T06:41:05;100678.78;;;13.51;100.00
14612;BME280;7392;52.078;11.650;2022-10-16T06:43:33;100690.34;;;13.51;100.00
14612;BME280;7392;52.078;11.650;2022-10-16T06:46:03;100692.06;;;13.54;100.00
14612;BME280;7392;52.078;11.650;2022-10-16T06:48:33;100676.03;;;13.55;100.00
14612;BME280;7392;52.078;11.650;2022-10-16T06:51:03;100663.53;;;13.59;100.00
14612;BME280;7392;52.078;11.650;2022-10-16T06:53:38;100671.50;;;13.62;100.00
14612;BME280;7392;52.078;11.650;2022-10-16T06:56:28;100675.88;;;13.64;100.00
14612;BME280;7392;52.078;11.650;2022-10-16T06:58:58;100673.22;;;13.64;100.00
14612;BME280;7392;52.078;11.650;2022-10-16T07:01:27;100679.38;;;13.68;100.00
14612;BME280;7392;52.078;11.650;2022-10-16T07:03:55;100673.97;;;13.73;100.00
14612;BME280;7392;52.078;11.650;2022-10-16T07:06:24;100695.28;;;13.77;100.00
14612;BME280;7392;52.078;11.650;2022-10-16T07:08:53;100698.75;;;13.82;100.00
14612;BME280;7392;52.078;11.650;2022-10-16T07:11:22;100706.66;;;13.89;100.00
14612;BME280;7392;52.078;11.650;2022-10-16T07:13:52;100704.78;;;13.94;100.00
14612;BME280;7392;52.078;11.650;2022-10-16T07:16:23;100716.22;;;14.00;100.00
14612;BME280;7392;52.078;11.650;2022-10-16T07:18:51;100708.13;;;14.07;100.00
14612;BME280;7392;52.078;11.650;2022-10-16T07:21:25;100714.28;;;14.12;100.00
14612;BME280;7392;52.078;11.650;2022-10-16T07:23:55;100722.22;;;14.16;100.00
14612;BME280;7392;52.078;11.650;2022-10-16T07:26:24;100721.22;;;14.20;100.00
14612;BME280;7392;52.078;11.650;2022-10-16T07:28:54;100722.06;;;14.24;100.00
14612;BME280;7392;52.078;11.650;2022-10-16T07:31:22;100729.97;;;14.30;100.00
14612;BME280;7392;52.078;11.650;2022-10-16T07:33:50;100724.50;;;14.36;100.00
14612;BME280;7392;52.078;11.650;2022-10-16T07:36:19;100730.66;;;14.41;100.00
14612;BME280;7392;52.078;11.650;2022-10-16T07:38:47;100735.03;;;14.47;100.00
14612;BME280;7392;52.078;11.650;2022-10-16T07:41:20;100748.25;;;14.53;100.00
14612;BME280;7392;52.078;11.650;2022-10-16T07:43:49;100754.41;;;14.58;100.00
14612;BME280;7392;52.078;11.650;2022-10-16T07:46:21;100764.13;;;14.64;100.00
14612;BME280;7392;52.078;11.650;2022-10-16T07:48:49;100766.69;;;14.69;100.00
14612;BME280;7392;52.078;11.650;2022-10-16T07:51:18;100764.81;;;14.74;100.00
14612;BME280;7392;52.078;11.650;2022-10-16T07:53:47;100769.28;;;14.75;100.00
14612;BME280;7392;52.078;11.650;2022-10-16T07:56:16;100774.56;;;14.78;100.00
14612;BME280;7392;52.078;11.650;2022-10-16T07:58:45;100782.56;;;14.80;100.00
14612;BME280;7392;52.078;11.650;2022-10-16T08:01:14;100786.09;;;14.80;100.00
14612;BME280;7392;52.078;11.650;2022-10-16T08:03:44;100786.09;;;14.80;100.00
14612;BME280;7392;52.078;11.650;2022-10-16T08:06:13;100776.28;;;14.81;100.00
14612;BME280;7392;52.078;11.650;2022-10-16T08:08:41;100778.94;;;14.82;100.00
14612;BME280;7392;52.078;11.650;2022-10-16T08:11:09;100786.06;;;14.83;100.00
14612;BME280;7392;52.078;11.650;2022-10-16T08:13:37;100784.28;;;14.82;100.00
14612;BME280;7392;52.078;11.650;2022-10-16T08:16:05;100789.63;;;14.82;100.00
14612;BME280;7392;52.078;11.650;2022-10-16T08:18:34;100789.66;;;14.81;100.00
14612;BME280;7392;52.078;11.650;2022-10-16T08:21:05;100799.44;;;14.82;100.00
14612;BME280;7392;52.078;11.650;2022-10-16T08:23:33;100798.56;;;14.83;100.00
14612;BME280;7392;52.078;11.650;2022-10-16T08:26:04;100812.78;;;14.83;100.00
14612;BME280;7392;52.078;11.650;2022-10-16T08:28:32;100808.31;;;14.84;100.00
14612;BME280;7392;52.078;11.650;2022-10-16T08:31:08;100809.16;;;14.86;100.00
14612;BME280;7392;52.078;11.650;2022-10-16T08:33:36;100807.31;;;14.89;100.00
14612;BME280;7392;52.078;11.650;2022-10-16T08:36:06;100802.75;;;14.94;100.00
14612;BME280;7392;52.078;11.650;2022-10-16T08:38:34;100806.06;;;15.07;100.00
14612;BME280;7392;52.078;11.650;2022-10-16T08:41:20;100804.09;;;15.19;100.00
14612;BME280;7392;52.078;11.650;2022-10-16T08:44:17;100809.28;;;15.25;100.00
14612;BME280;7392;52.078;11.650;2022-10-16T08:46:53;100824.38;;;15.29;100.00
14612;BME280;7392;52.078;11.650;2022-10-16T08:49:24;100831.34;;;15.38;100.00
14612;BME280;7392;52.078;11.650;2022-10-16T08:51:55;100832.09;;;15.44;100.00
14612;BME280;7392;52.078;11.650;2022-10-16T08:54:29;100837.22;;;15.55;100.00
14612;BME280;7392;52.078;11.650;2022-10-16T08:57:04;100857.50;;;15.65;100.00
14612;BME280;7392;52.078;11.650;2022-10-16T08:59:35;100844.84;;;15.74;100.00
14612;BME280;7392;52.078;11.650;2022-10-16T09:02:18;100839.47;;;15.77;100.00
14612;BME280;7392;52.078;11.650;2022-10-16T09:07:47;100871.31;;;15.89;100.00
14612;BME280;7392;52.078;11.650;2022-10-16T09:10:26;100868.34;;;16.01;100.00
14612;BME280;7392;52.078;11.650;2022-10-16T09:13:03;100866.41;;;16.10;100.00
14612;BME280;7392;52.078;11.650;2022-10-16T09:15:39;100864.22;;;16.25;100.00
14612;BME280;7392;52.078;11.650;2022-10-16T09:18:15;100864.47;;;16.52;100.00
14612;BME280;7392;52.078;11.650;2022-10-16T09:20:49;100863.41;;;16.59;100.00
14612;BME280;7392;52.078;11.650;2022-10-16T09:23:24;100863.28;;;16.64;100.00
14612;BME280;7392;52.078;11.650;2022-10-16T09:25:54;100857.97;;;16.62;99.12
14612;BME280;7392;52.078;11.650;2022-10-16T09:28:22;100866.91;;;16.61;98.06
14612;BME280;7392;52.078;11.650;2022-10-16T09:30:50;100876.69;;;16.64;98.06
14612;BME280;7392;52.078;11.650;2022-10-16T09:33:21;100868.66;;;16.64;96.61
14612;BME280;7392;52.078;11.650;2022-10-16T09:35:50;100873.03;;;16.67;95.70
14612;BME280;7392;52.078;11.650;2022-10-16T09:38:26;100884.56;;;16.70;95.17
14612;BME280;7392;52.078;11.650;2022-10-16T09:40:56;100879.09;;;16.75;94.80
14612;BME280;7392;52.078;11.650;2022-10-16T09:43:34;100874.53;;;16.78;93.97
14612;BME280;7392;52.078;11.650;2022-10-16T09:46:06;100876.22;;;16.82;93.26
14612;BME280;7392;52.078;11.650;2022-10-16T09:48:37;100876.06;;;16.90;93.10
14612;BME280;7392;52.078;11.650;2022-10-16T09:51:13;100879.50;;;16.95;92.79
14612;BME280;7392;52.078;11.650;2022-10-16T09:53:46;100886.44;;;17.02;91.92
14612;BME280;7392;52.078;11.650;2022-10-16T09:56:22;100884.41;;;17.12;91.78
14612;BME280;7392;52.078;11.650;2022-10-16T09:58:51;100901.06;;;17.25;91.68
14612;BME280;7392;52.078;11.650;2022-10-16T10:01:21;100896.91;;;17.46;90.83
14612;BME280;7392;52.078;11.650;2022-10-16T10:03:50;100894.72;;;17.59;90.32
14612;BME280;7392;52.078;11.650;2022-10-16T10:06:23;100891.88;;;17.65;89.43
14612;BME280;7392;52.078;11.650;2022-10-16T10:08:58;100900.66;;;17.70;88.22
14612;BME280;7392;52.078;11.650;2022-10-16T10:11:38;100907.75;;;17.73;86.34
14612;BME280;7392;52.078;11.650;2022-10-16T10:14:15;100904.06;;;17.77;84.40
14612;BME280;7392;52.078;11.650;2022-10-16T10:16:44;100901.00;;;17.91;84.90
14612;BME280;7392;52.078;11.650;2022-10-16T10:19:14;100907.38;;;18.17;84.89
14612;BME280;7392;52.078;11.650;2022-10-16T10:21:43;100900.72;;;18.28;82.42
14612;BME280;7392;52.078;11.650;2022-10-16T10:24:13;100910.34;;;18.36;82.63
14612;BME280;7392;52.078;11.650;2022-10-16T10:26:48;100917.41;;;18.40;82.04
14612;BME280;7392;52.078;11.650;2022-10-16T10:29:36;100919.28;;;18.36;79.34
14612;BME280;7392;52.078;11.650;2022-10-16T10:32:17;100923.94;;;18.31;78.67
14612;BME280;7392;52.078;11.650;2022-10-16T10:35:02;100913.25;;;18.29;78.57
14612;BME280;7392;52.078;11.650;2022-10-16T10:37:49;100921.19;;;18.32;78.55
14612;BME280;7392;52.078;11.650;2022-10-16T10:40:33;100928.34;;;18.34;78.06
14612;BME280;7392;52.078;11.650;2022-10-16T10:43:06;100927.44;;;18.35;76.43
14612;BME280;7392;52.078;11.650;2022-10-16T10:45:43;100922.84;;;18.38;76.25
14612;BME280;7392;52.078;11.650;2022-10-16T10:48:27;100923.53;;;18.45;75.38
14612;BME280;7392;52.078;11.650;2022-10-16T10:51:01;100925.16;;;18.49;75.49
14612;BME280;7392;52.078;11.650;2022-10-16T10:53:38;100928.63;;;18.53;75.63
14612;BME280;7392;52.078;11.650;2022-10-16T10:56:23;100926.91;;;18.52;74.59
14612;BME280;7392;52.078;11.650;2022-10-16T10:59:08;100926.00;;;18.51;74.77
14612;BME280;7392;52.078;11.650;2022-10-16T11:01:47;100931.47;;;18.48;74.73
14612;BME280;7392;52.078;11.650;2022-10-16T11:07:25;100934.41;;;18.40;73.85
14612;BME280;7392;52.078;11.650;2022-10-16T11:09:58;100929.13;;;18.37;73.38
14612;BME280;7392;52.078;11.650;2022-10-16T11:12:31;100925.63;;;18.35;73.60
14612;BME280;7392;52.078;11.650;2022-10-16T11:15:04;100932.72;;;18.36;74.04
14612;BME280;7392;52.078;11.650;2022-10-16T11:17:40;100928.16;;;18.40;74.07
14612;BME280;7392;52.078;11.650;2022-10-16T11:20:14;100932.00;;;18.59;74.36
14612;BME280;7392;52.078;11.650;2022-10-16T11:22:47;100930.31;;;18.85;73.38
14612;BME280;7392;52.078;11.650;2022-10-16T11:25:20;100943.75;;;19.12;71.51
14612;BME280;7392;52.078;11.650;2022-10-16T11:27:55;100929.75;;;19.27;67.73
14612;BME280;7392;52.078;11.650;2022-10-16T11:30:26;100921.38;;;19.35;66.15
14612;BME280;7392;52.078;11.650;2022-10-16T11:33:04;100932.34;;;19.30;65.78
14612;BME280;7392;52.078;11.650;2022-10-16T11:35:41;100942.13;;;19.33;65.65
14612;BME280;7392;52.078;11.650;2022-10-16T11:38:16;100941.91;;;19.39;65.58
14612;BME280;7392;52.078;11.650;2022-10-16T11:40:52;100954.41;;;19.65;65.56
14612;BME280;7392;52.078;11.650;2022-10-16T11:43:29;100957.78;;;19.72;64.39
14612;BME280;7392;52.078;11.650;2022-10-16T11:46:04;100947.81;;;19.74;62.95
14612;BME280;7392;52.078;11.650;2022-10-16T11:48:39;100955.88;;;19.74;63.37
14612;BME280;7392;52.078;11.650;2022-10-16T11:51:15;100951.25;;;19.79;63.77
14612;BME280;7392;52.078;11.650;2022-10-16T11:53:47;100949.59;;;19.75;63.68
14612;BME280;7392;52.078;11.650;2022-10-16T11:56:20;100953.19;;;19.74;63.89
14612;BME280;7392;52.078;11.650;2022-10-16T11:58:56;100958.88;;;19.66;62.85
14612;BME280;7392;52.078;11.650;2022-10-16T12:01:30;100952.69;;;19.62;62.65
14612;BME280;7392;52.078;11.650;2022-10-16T12:04:17;100945.63;;;19.85;63.59
14612;BME280;7392;52.078;11.650;2022-10-16T12:06:49;100951.59;;;20.17;63.51
14612;BME280;7392;52.078;11.650;2022-10-16T12:09:22;100947.16;;;20.16;61.00
14612;BME280;7392;52.078;11.650;2022-10-16T12:11:52;100949.16;;;20.11;61.07
14612;BME280;7392;52.078;11.650;2022-10-16T12:14:36;100945.88;;;20.03;61.77
14612;BME280;7392;52.078;11.650;2022-10-16T12:17:27;100960.53;;;19.95;60.87
14612;BME280;7392;52.078;11.650;2022-10-16T12:19:59;100951.94;;;19.84;60.45
14612;BME280;7392;52.078;11.650;2022-10-16T12:22:29;100951.50;;;19.71;60.92
14612;BME280;7392;52.078;11.650;2022-10-16T12:25:02;100957.06;;;19.67;61.33
14612;BME280;7392;52.078;11.650;2022-10-16T12:27:31;100960.69;;;19.66;60.88
14612;BME280;7392;52.078;11.650;2022-10-16T12:30:04;100956.91;;;19.71;61.17
14612;BME280;7392;52.078;11.650;2022-10-16T12:32:36;100959.28;;;19.80;61.34
14612;BME280;7392;52.078;11.650;2022-10-16T12:35:19;100957.81;;;19.95;61.03
14612;BME280;7392;52.078;11.650;2022-10-16T12:37:48;100962.53;;;20.14;60.26
14612;BME280;7392;52.078;11.650;2022-10-16T12:40:27;100969.75;;;20.12;60.59
14612;BME280;7392;52.078;11.650;2022-10-16T12:42:56;100973.91;;;20.21;60.49
14612;BME280;7392;52.078;11.650;2022-10-16T12:45:28;100977.78;;;20.37;60.43
14612;BME280;7392;52.078;11.650;2022-10-16T12:47:59;100980.25;;;20.67;60.21
14612;BME280;7392;52.078;11.650;2022-10-16T12:50:33;100980.09;;;20.70;60.16
14612;BME280;7392;52.078;11.650;2022-10-16T12:53:03;100981.53;;;20.79;59.85
14612;BME280;7392;52.078;11.650;2022-10-16T12:55:40;100983.69;;;20.70;59.15
14612;BME280;7392;52.078;11.650;2022-10-16T12:58:24;100972.41;;;20.59;59.03
14612;BME280;7392;52.078;11.650;2022-10-16T13:01:03;100984.22;;;20.57;59.06
14612;BME280;7392;52.078;11.650;2022-10-16T13:03:48;100986.06;;;20.54;58.94
14612;BME280;7392;52.078;11.650;2022-10-16T13:06:30;100999.06;;;20.45;59.12
14612;BME280;7392;52.078;11.650;2022-10-16T13:09:13;100994.38;;;20.50;59.10
14612;BME280;7392;52.078;11.650;2022-10-16T13:12:00;100992.22;;;20.82;59.27